Main page
METAR-TAF:

METAR-TAF

Airports :

Nakhchivan International Airport

Nakhchivan, Azerbaijan

latitude: 39-11-19N, longitude: 045-27-30E, elevation: 873 m

Current weather observation

The report was made 8 minutes ago, at 21:30 UTC
Wind 4 kt from the East
Temperature 12°C
Humidity 58%
Pressure 1022 hPa
Visibility 10 km or more

METAR: UBBN 172130Z 09004KT 9999 NSC 12/04 Q1022 R14R/CLRD// NOSIG RMK MT OP QFE691

Time: 01:38 (21:38 UTC)

Forecast

The report was made 4 hours and 32 minutes ago, at 17:06 UTC
Forecast valid from 17 at 18 UTC to 18 at 18 UTC
Wind 10 kt from the South/Southeast
Visibility 10 km or more
Few clouds at a height of 5000 ft
Scattered clouds at a height of 10000 ft
Temporary
from 17 at 18 UTC to 18 at 02 UTC
Wind 10 kt from the East/Southeast

TAF: UBBN 171706Z 1718/1818 16010KT 9999 FEW050 SCT100 TX23/1812Z TN10/1803Z TEMPO 1718/1802 12010KT

Weather observations and forecasts of more than 4000 airports (METAR and TAF reports).

The available stations are represented by yellow and red dots on the map.

Hover mouse over dot to see the name of the station.

Then click to see weather observations and forecasts.

To change the map : click on the green buttons with a black cross to zoom in, on the green button with a dash to zoom out, or on the green arrows for adjacent maps.


METAR-TAF: